createdAt,value
2022-09-12T00:01:49.688Z,9.40
2022-09-12T00:04:16.634Z,9.40
2022-09-12T00:06:43.786Z,9.40
2022-09-12T00:09:13.334Z,9.30
2022-09-12T00:11:42.563Z,9.30
2022-09-12T00:14:10.629Z,9.30
2022-09-12T00:16:38.022Z,9.30
2022-09-12T00:19:06.208Z,9.30
2022-09-12T00:21:34.614Z,9.30
2022-09-12T00:24:01.604Z,10.00
2022-09-12T00:26:28.559Z,9.20
2022-09-12T00:28:55.731Z,9.20
2022-09-12T00:31:26.870Z,9.20
2022-09-12T00:33:56.453Z,9.20
2022-09-12T00:36:24.616Z,9.60
2022-09-12T00:38:51.819Z,9.10
2022-09-12T00:41:20.590Z,9.10
2022-09-12T00:43:49.019Z,9.00
2022-09-12T00:46:31.096Z,9.00
2022-09-12T00:49:09.393Z,9.00
2022-09-12T00:51:36.845Z,9.00
2022-09-12T00:54:06.383Z,8.90
2022-09-12T00:56:34.435Z,9.00
2022-09-12T00:59:11.909Z,8.90
2022-09-12T01:01:40.412Z,8.90
2022-09-12T01:04:08.346Z,8.90
2022-09-12T01:06:36.953Z,8.90
2022-09-12T01:09:04.998Z,8.90
2022-09-12T01:11:36.533Z,8.80
2022-09-12T01:14:06.550Z,8.80
2022-09-12T01:16:37.386Z,8.80
2022-09-12T01:19:22.985Z,8.80
2022-09-12T01:22:15.359Z,8.80
2022-09-12T01:24:51.797Z,8.80
2022-09-12T01:27:34.304Z,8.80
2022-09-12T01:30:19.767Z,8.90
2022-09-12T01:33:04.924Z,8.80
2022-09-12T01:35:46.709Z,8.90
2022-09-12T01:38:29.448Z,8.90
2022-09-12T01:40:56.331Z,8.90
2022-09-12T01:43:23.482Z,9.60
2022-09-12T01:45:58.295Z,8.90
2022-09-12T01:48:31.312Z,8.90
2022-09-12T01:51:13.436Z,8.90
2022-09-12T01:53:46.715Z,8.90
2022-09-12T01:56:25.923Z,8.90
2022-09-12T01:58:55.895Z,8.90
2022-09-12T02:01:33.917Z,8.90
2022-09-12T02:04:05.890Z,8.80
2022-09-12T02:06:38.830Z,8.80
2022-09-12T02:09:10.090Z,8.80
2022-09-12T02:11:40.214Z,8.80
2022-09-12T02:14:11.437Z,8.80
2022-09-12T02:16:44.447Z,8.80
2022-09-12T02:19:18.458Z,8.80
2022-09-12T02:21:46.747Z,8.80
2022-09-12T02:24:14.982Z,9.00
2022-09-12T02:26:46.977Z,8.80
2022-09-12T02:29:14.134Z,8.80
2022-09-12T02:31:45.771Z,8.80
2022-09-12T02:34:27.734Z,8.80
2022-09-12T02:37:03.894Z,8.70
2022-09-12T02:39:31.040Z,8.70
2022-09-12T02:42:00.928Z,8.70
2022-09-12T02:44:29.371Z,8.70
2022-09-12T02:47:02.418Z,8.70
2022-09-12T02:49:29.560Z,8.70
2022-09-12T02:51:56.451Z,8.70
2022-09-12T02:54:24.310Z,8.70
2022-09-12T02:56:51.761Z,8.70
2022-09-12T02:59:19.389Z,8.70
2022-09-12T03:01:46.617Z,8.70
2022-09-12T03:04:13.740Z,8.70
2022-09-12T03:06:49.759Z,9.00
2022-09-12T03:09:35.706Z,8.80
2022-09-12T03:12:07.657Z,8.70
2022-09-12T03:14:43.809Z,8.70
2022-09-12T03:17:29.288Z,8.70
2022-09-12T03:20:05.604Z,8.70
2022-09-12T03:22:32.550Z,8.70
2022-09-12T03:25:17.609Z,8.70
2022-09-12T03:27:46.512Z,8.70
2022-09-12T03:30:13.728Z,8.70
2022-09-12T03:32:44.361Z,8.70
2022-09-12T03:35:11.795Z,8.70
2022-09-12T03:37:39.189Z,8.70
2022-09-12T03:40:07.135Z,8.70
2022-09-12T03:42:34.321Z,8.70
2022-09-12T03:45:01.731Z,8.70
2022-09-12T03:47:28.618Z,8.70
2022-09-12T03:49:55.563Z,8.70
2022-09-12T03:52:22.954Z,8.60
2022-09-12T03:54:49.852Z,8.60
2022-09-12T03:57:16.762Z,8.60
2022-09-12T03:59:43.891Z,8.70
2022-09-12T04:02:13.283Z,8.60
2022-09-12T04:04:43.542Z,8.60
2022-09-12T04:07:11.434Z,8.60
2022-09-12T04:09:38.339Z,8.60
2022-09-12T04:12:05.466Z,8.50
2022-09-12T04:14:32.745Z,8.60
2022-09-12T04:17:00.137Z,8.60
2022-09-12T04:19:27.506Z,8.60
2022-09-12T04:21:54.873Z,8.60
2022-09-12T04:24:21.974Z,8.60
2022-09-12T04:26:48.954Z,8.60
2022-09-12T04:29:16.170Z,8.70
2022-09-12T04:31:43.105Z,8.60
2022-09-12T04:34:10.247Z,8.70
2022-09-12T04:36:37.821Z,8.70
2022-09-12T04:39:05.343Z,8.70
2022-09-12T04:41:34.002Z,8.80
2022-09-12T04:44:03.116Z,8.80
2022-09-12T04:46:34.642Z,8.80
2022-09-12T04:49:01.815Z,8.90
2022-09-12T04:51:30.188Z,8.90
2022-09-12T04:53:58.701Z,9.00
2022-09-12T04:56:26.147Z,9.00
2022-09-12T04:58:53.355Z,9.20
2022-09-12T05:01:21.712Z,9.30
2022-09-12T05:03:49.623Z,9.40
2022-09-12T05:06:24.018Z,9.50
2022-09-12T05:08:52.140Z,9.60
2022-09-12T05:11:24.742Z,9.60
2022-09-12T05:13:53.846Z,10.00
2022-09-12T05:16:21.794Z,9.80
2022-09-12T05:18:50.216Z,9.90
2022-09-12T05:21:18.597Z,10.00
2022-09-12T05:23:47.749Z,10.10
2022-09-12T05:26:16.084Z,10.20
2022-09-12T05:28:43.674Z,10.30
2022-09-12T05:31:12.319Z,10.30
2022-09-12T05:33:40.134Z,10.40
2022-09-12T05:36:08.222Z,10.50
2022-09-12T05:38:35.656Z,11.40
2022-09-12T05:41:03.775Z,13.10
2022-09-12T05:43:33.462Z,13.50
2022-09-12T05:46:02.019Z,16.10
2022-09-12T05:48:29.364Z,19.10
2022-09-12T05:51:01.480Z,21.30
2022-09-12T05:53:31.823Z,22.80
2022-09-12T05:56:17.889Z,23.90
2022-09-12T05:58:46.853Z,25.10
2022-09-12T06:01:15.203Z,26.40
2022-09-12T06:03:44.575Z,27.00
2022-09-12T06:06:15.133Z,27.80
2022-09-12T06:08:43.512Z,28.70
2022-09-12T06:11:11.897Z,29.20
2022-09-12T06:13:40.253Z,29.60
2022-09-12T06:16:11.210Z,30.10
2022-09-12T06:18:38.719Z,29.90
2022-09-12T06:21:07.209Z,29.60
2022-09-12T06:23:34.374Z,29.40
2022-09-12T06:26:01.366Z,29.20
2022-09-12T06:28:28.917Z,28.90
2022-09-12T06:31:01.652Z,28.80
2022-09-12T06:33:28.620Z,28.40
2022-09-12T06:35:55.938Z,28.30
2022-09-12T06:38:23.130Z,28.00
2022-09-12T06:40:50.820Z,27.70
2022-09-12T06:43:18.022Z,26.30
2022-09-12T06:45:51.197Z,24.70
2022-09-12T06:48:18.414Z,23.50
2022-09-12T06:50:54.986Z,22.40
2022-09-12T06:53:22.199Z,21.70
2022-09-12T06:55:55.563Z,21.00
2022-09-12T06:58:22.505Z,20.60
2022-09-12T07:00:49.906Z,20.10
2022-09-12T07:03:16.840Z,19.50
2022-09-12T07:05:44.177Z,19.10
2022-09-12T07:08:11.519Z,18.90
2022-09-12T07:10:38.491Z,18.50
2022-09-12T07:13:05.502Z,18.20
2022-09-12T07:15:34.365Z,18.00
2022-09-12T07:18:01.704Z,18.00
2022-09-12T07:20:29.096Z,18.10
2022-09-12T07:22:56.485Z,17.90
2022-09-12T07:25:23.484Z,17.70
2022-09-12T07:27:53.094Z,17.60
2022-09-12T07:30:20.224Z,17.70
2022-09-12T07:32:47.134Z,17.70
2022-09-12T07:35:14.158Z,17.80
2022-09-12T07:37:41.263Z,17.90
2022-09-12T07:40:08.302Z,18.00
2022-09-12T07:42:35.827Z,18.00
2022-09-12T07:45:03.118Z,17.90
2022-09-12T07:47:30.122Z,18.00
2022-09-12T07:50:01.488Z,17.90
2022-09-12T07:52:28.604Z,18.00
2022-09-12T07:54:55.600Z,17.90
2022-09-12T07:57:22.509Z,17.70
2022-09-12T07:59:52.901Z,17.70
2022-09-12T08:02:20.511Z,17.90
2022-09-12T08:04:48.185Z,17.80
2022-09-12T08:07:15.883Z,17.90
2022-09-12T08:09:42.876Z,18.00
2022-09-12T08:12:10.249Z,18.10
2022-09-12T08:14:37.583Z,18.20
2022-09-12T08:17:04.646Z,18.50
2022-09-12T08:19:33.981Z,18.80
2022-09-12T08:22:02.925Z,19.00
2022-09-12T08:24:30.020Z,19.10
2022-09-12T08:26:57.325Z,19.10
2022-09-12T08:29:24.565Z,18.90
2022-09-12T08:31:56.523Z,18.80
2022-09-12T08:34:28.459Z,18.80
2022-09-12T08:36:55.450Z,19.10
2022-09-12T08:39:24.802Z,19.30
2022-09-12T08:41:58.885Z,19.20
2022-09-12T08:44:30.287Z,19.20
2022-09-12T08:47:00.263Z,19.00
2022-09-12T08:49:29.796Z,19.00
2022-09-12T08:51:59.156Z,19.20
2022-09-12T08:54:28.115Z,19.40
2022-09-12T08:56:58.007Z,19.10
2022-09-12T08:59:25.721Z,18.70
2022-09-12T09:01:58.461Z,18.50
2022-09-12T09:04:43.917Z,18.60
2022-09-12T09:07:17.248Z,18.60
2022-09-12T09:10:03.164Z,19.70
2022-09-12T09:12:30.322Z,18.20
2022-09-12T09:15:03.249Z,18.20
2022-09-12T09:17:41.615Z,18.40
2022-09-12T09:20:30.793Z,18.70
2022-09-12T09:23:08.539Z,18.80
2022-09-12T09:25:35.721Z,19.00
2022-09-12T09:28:15.626Z,19.30
2022-09-12T09:30:44.502Z,19.50
2022-09-12T09:33:20.417Z,19.60
2022-09-12T09:35:52.258Z,19.60
2022-09-12T09:38:25.055Z,19.70
2022-09-12T09:40:55.350Z,19.80
2022-09-12T09:43:23.735Z,19.90
2022-09-12T09:45:52.212Z,19.70
2022-09-12T09:48:21.779Z,19.40
2022-09-12T09:50:49.500Z,19.30
2022-09-12T09:53:29.678Z,19.10
2022-09-12T09:56:01.695Z,18.70
2022-09-12T09:58:29.961Z,18.40
2022-09-12T10:01:01.579Z,18.10
2022-09-12T10:03:31.356Z,18.20
2022-09-12T10:06:02.972Z,18.40
2022-09-12T10:08:36.739Z,18.80
2022-09-12T10:11:06.550Z,18.90
2022-09-12T10:13:41.333Z,19.10
2022-09-12T10:16:41.166Z,19.30
2022-09-12T10:19:20.539Z,19.50
2022-09-12T10:21:50.668Z,19.30
2022-09-12T10:24:28.669Z,19.00
2022-09-12T10:26:58.313Z,18.90
2022-09-12T10:29:27.617Z,19.00
2022-09-12T10:31:55.940Z,19.20
2022-09-12T10:34:37.393Z,19.50
2022-09-12T10:37:06.067Z,19.60
2022-09-12T10:39:34.900Z,19.70
2022-09-12T10:42:02.897Z,19.70
2022-09-12T10:44:31.464Z,19.70
2022-09-12T10:46:59.568Z,19.80
2022-09-12T10:49:26.574Z,20.00
2022-09-12T10:51:54.478Z,20.20
2022-09-12T10:54:25.513Z,20.30
2022-09-12T10:57:08.290Z,20.20
2022-09-12T10:59:41.482Z,20.20
2022-09-12T11:02:23.710Z,20.10
2022-09-12T11:04:54.042Z,20.10
2022-09-12T11:07:23.757Z,20.00
2022-09-12T11:10:10.698Z,20.10
2022-09-12T11:12:56.630Z,19.90
2022-09-12T11:15:26.405Z,19.60
2022-09-12T11:18:02.770Z,19.40
2022-09-12T11:20:31.992Z,19.40
2022-09-12T11:23:07.961Z,19.60
2022-09-12T11:25:39.696Z,19.70
2022-09-12T11:28:15.844Z,19.80
2022-09-12T11:30:55.139Z,19.90
2022-09-12T11:33:42.976Z,19.80
2022-09-12T11:36:20.797Z,19.80
2022-09-12T11:38:52.093Z,19.70
2022-09-12T11:41:23.576Z,19.70
2022-09-12T11:44:23.244Z,19.70
2022-09-12T11:46:52.074Z,19.60
2022-09-12T11:49:22.477Z,19.60
2022-09-12T11:51:49.385Z,19.40
2022-09-12T11:54:35.052Z,19.30
2022-09-12T11:57:07.924Z,19.10
2022-09-12T11:59:53.086Z,19.00
2022-09-12T12:02:30.542Z,18.80
2022-09-12T12:05:03.864Z,18.70
2022-09-12T12:07:37.439Z,18.60
2022-09-12T12:10:05.513Z,18.50
2022-09-12T12:12:33.291Z,18.50
2022-09-12T12:15:01.079Z,18.70
2022-09-12T12:17:29.822Z,18.60
2022-09-12T12:20:05.809Z,18.50
